createdAt,value
2018-03-22T00:05:17.842Z,23.99
2018-03-22T00:11:08.461Z,18.3
2018-03-22T00:16:59.076Z,17.85
2018-03-22T00:22:49.640Z,17.38
2018-03-22T00:28:40.267Z,16.89
2018-03-22T00:34:30.922Z,16.95
2018-03-22T00:40:21.511Z,12.39
2018-03-22T00:46:12.176Z,17.87
2018-03-22T00:52:02.761Z,16.95
2018-03-22T00:57:53.380Z,13.22
2018-03-22T01:03:44.031Z,17.74
2018-03-22T01:09:34.632Z,18.86
2018-03-22T01:15:25.401Z,15.09
2018-03-22T01:21:15.887Z,12.94
2018-03-22T01:27:06.476Z,17.1
2018-03-22T01:32:57.127Z,17.71
2018-03-22T01:38:47.691Z,17.11
2018-03-22T01:44:38.343Z,23.36
2018-03-22T01:50:28.965Z,18.23
2018-03-22T01:56:19.575Z,16.36
2018-03-22T02:02:10.172Z,16
2018-03-22T02:08:00.760Z,13.13
2018-03-22T02:13:51.371Z,16.7
2018-03-22T02:19:41.974Z,19.64
2018-03-22T02:25:32.591Z,14.76
2018-03-22T02:31:23.268Z,14.85
2018-03-22T02:37:13.845Z,13.98
2018-03-22T02:43:04.484Z,16
2018-03-22T02:48:55.077Z,17.26
2018-03-22T02:54:45.677Z,14.32
2018-03-22T03:00:36.278Z,16.69
2018-03-22T03:06:26.863Z,13.86
2018-03-22T03:12:17.494Z,13.36
2018-03-22T03:18:08.108Z,16.17
2018-03-22T03:23:58.704Z,14.54
2018-03-22T03:29:49.365Z,19.11
2018-03-22T03:35:39.960Z,17.99
2018-03-22T03:41:30.641Z,15.66
2018-03-22T03:47:21.160Z,17.25
2018-03-22T03:53:11.826Z,16.6
2018-03-22T03:59:02.435Z,18.06
2018-03-22T04:04:53.030Z,15.1
2018-03-22T04:10:43.622Z,21.38
2018-03-22T04:16:34.269Z,15.56
2018-03-22T04:22:24.870Z,20.03
2018-03-22T04:28:15.417Z,15.22
2018-03-22T04:34:06.033Z,14.87
2018-03-22T04:39:56.708Z,18.21
2018-03-22T04:45:47.295Z,13.35
2018-03-22T04:51:37.882Z,15.1
2018-03-22T04:57:28.509Z,18.6
2018-03-22T05:03:19.119Z,15.01
2018-03-22T05:09:09.681Z,13.57
2018-03-22T05:15:00.299Z,18.2
2018-03-22T05:20:50.896Z,15.59
2018-03-22T05:26:41.542Z,11.18
2018-03-22T05:32:32.187Z,14.93
2018-03-22T05:38:22.755Z,16.91
2018-03-22T05:44:13.374Z,16.37
2018-03-22T05:50:03.958Z,13.11
2018-03-22T05:55:54.585Z,15.62
2018-03-22T06:01:45.210Z,20.62
2018-03-22T06:07:35.767Z,16.26
2018-03-22T06:13:26.373Z,16.69
2018-03-22T06:19:17.031Z,13.61
2018-03-22T06:25:07.595Z,14.3
2018-03-22T06:30:58.217Z,10.7
2018-03-22T06:36:48.861Z,15.71
2018-03-22T06:42:39.505Z,14.64
2018-03-22T06:48:30.058Z,10.52
2018-03-22T06:54:20.706Z,11.18
2018-03-22T07:00:11.367Z,9.85
2018-03-22T07:06:01.925Z,13.38
2018-03-22T07:11:52.556Z,13.69
2018-03-22T07:17:43.214Z,9.07
2018-03-22T07:23:33.843Z,13.12
2018-03-22T07:29:24.473Z,9.49
2018-03-22T07:35:15.188Z,9.24
2018-03-22T07:41:05.809Z,9.93
2018-03-22T07:46:56.400Z,8.59
2018-03-22T07:52:47.043Z,8.36
2018-03-22T07:58:37.684Z,7.13
2018-03-22T08:04:28.369Z,7.64
2018-03-22T08:10:19.011Z,8.94
2018-03-22T08:16:09.632Z,10
2018-03-22T08:22:00.257Z,8.48
2018-03-22T08:27:50.923Z,7.9
2018-03-22T08:33:41.625Z,9.58
2018-03-22T08:39:32.333Z,8.25
2018-03-22T08:45:22.916Z,11.57
2018-03-22T08:51:13.582Z,9.73
2018-03-22T08:57:04.291Z,10.6
2018-03-22T09:02:54.944Z,10.08
2018-03-22T09:08:45.614Z,9.58
2018-03-22T09:14:36.305Z,8.98
2018-03-22T09:20:26.993Z,7.52
2018-03-22T09:26:17.706Z,7.64
2018-03-22T09:32:08.325Z,10
2018-03-22T09:37:59.025Z,11.62
2018-03-22T09:43:49.701Z,8.79
2018-03-22T09:49:40.404Z,8.55
2018-03-22T09:55:31.049Z,7.65
2018-03-22T10:01:21.773Z,8.24
2018-03-22T10:07:12.428Z,8.8
2018-03-22T10:13:03.195Z,8.48
2018-03-22T10:18:53.853Z,7
2018-03-22T10:24:44.544Z,10.18
2018-03-22T10:30:35.215Z,8.56
2018-03-22T10:36:25.965Z,9.46
2018-03-22T10:42:16.642Z,11.72
2018-03-22T10:48:07.367Z,10.06
2018-03-22T10:54:48.836Z,10.48
2018-03-22T12:55:01.800Z,9.21
2018-03-22T13:00:52.537Z,12.52
2018-03-22T13:06:43.280Z,11.57
2018-03-22T13:12:33.937Z,9.57
2018-03-22T13:18:24.734Z,7.8
2018-03-22T13:24:15.518Z,9.07
2018-03-22T13:30:06.154Z,10.17
2018-03-22T13:35:56.895Z,9.26
2018-03-22T13:41:47.584Z,7.23
2018-03-22T13:47:38.340Z,9.27
2018-03-22T13:53:29.051Z,7.6
2018-03-22T13:59:19.823Z,8.77
2018-03-22T14:05:10.513Z,7.19
2018-03-22T14:11:01.223Z,8.71
2018-03-22T14:16:51.942Z,6.2
2018-03-22T14:22:42.678Z,7.45
2018-03-22T14:28:33.371Z,8.98
2018-03-22T14:34:24.106Z,6.34
2018-03-22T14:40:14.815Z,6.02
2018-03-22T14:46:05.524Z,7.7
2018-03-22T14:51:56.284Z,4.47
2018-03-22T14:57:46.998Z,9.51
2018-03-22T15:03:37.694Z,6.84
2018-03-22T15:09:28.426Z,6.99
2018-03-22T15:15:19.137Z,45.96
2018-03-22T15:21:09.827Z,7.2
2018-03-22T15:27:00.499Z,7.1
2018-03-22T15:32:51.213Z,5.95
2018-03-22T15:38:41.927Z,9.51
2018-03-22T15:44:32.644Z,5.12
2018-03-22T15:50:23.250Z,6.18
2018-03-22T15:56:13.937Z,6.5
2018-03-22T16:02:04.605Z,9.06
2018-03-22T16:07:55.696Z,8.28
2018-03-22T16:13:45.957Z,8.21
2018-03-22T16:19:36.678Z,8.38
2018-03-22T16:25:27.320Z,7.13
2018-03-22T16:31:18.012Z,8.85
2018-03-22T16:37:08.635Z,9.75
2018-03-22T16:42:59.280Z,10.38
2018-03-22T16:48:49.906Z,8.13
2018-03-22T16:54:40.592Z,8.12
2018-03-22T17:00:31.231Z,12.47
2018-03-22T17:06:21.846Z,11.89
2018-03-22T17:12:12.573Z,9.3
2018-03-22T17:18:03.211Z,11.57
2018-03-22T17:23:53.789Z,8.16
2018-03-22T17:29:44.450Z,10.68
2018-03-22T17:35:35.142Z,13.23
2018-03-22T17:41:25.730Z,10.35
2018-03-22T17:47:16.342Z,9.77
2018-03-22T17:53:07.003Z,10.68
2018-03-22T17:58:57.683Z,10.95
2018-03-22T18:04:48.305Z,9.32
2018-03-22T18:10:38.932Z,14.56
2018-03-22T18:16:29.560Z,10.94
2018-03-22T18:22:20.180Z,12.36
2018-03-22T18:28:10.834Z,12.88
2018-03-22T18:34:01.461Z,11.94
2018-03-22T18:39:52.087Z,12.15
2018-03-22T18:45:42.802Z,12.3
2018-03-22T18:51:33.378Z,19.42
2018-03-22T18:57:23.991Z,10.55
2018-03-22T19:03:14.644Z,9.72
2018-03-22T19:09:05.334Z,13.88
2018-03-22T19:14:55.992Z,12.64
2018-03-22T19:20:46.598Z,16.09
2018-03-22T19:26:37.204Z,16.91
2018-03-22T19:32:27.852Z,17.01
2018-03-22T19:38:18.546Z,15.72
2018-03-22T19:44:09.171Z,12.29
2018-03-22T19:49:59.782Z,13.66
2018-03-22T19:55:50.392Z,17.87
2018-03-22T20:01:40.976Z,17.01
2018-03-22T20:07:31.643Z,15.41
2018-03-22T20:13:22.232Z,19.91
2018-03-22T20:19:12.884Z,20.04
2018-03-22T20:25:03.566Z,19.89
2018-03-22T20:30:54.182Z,20.08
2018-03-22T20:36:44.802Z,22.99
2018-03-22T20:42:35.406Z,21.98
2018-03-22T20:48:26.063Z,19.11
2018-03-22T20:54:16.725Z,18.67
2018-03-22T21:00:07.422Z,17.17
2018-03-22T21:05:57.951Z,24.9
2018-03-22T21:11:48.589Z,16.02
2018-03-22T21:17:39.280Z,17.5
2018-03-22T21:23:29.823Z,23.93
2018-03-22T21:29:20.467Z,20.67
2018-03-22T21:35:11.122Z,22.82
2018-03-22T21:41:01.794Z,24.37
2018-03-22T21:46:52.358Z,17.06
2018-03-22T21:52:43.005Z,18.66
2018-03-22T21:58:33.668Z,21.59
2018-03-22T22:04:24.311Z,19.71
2018-03-22T22:10:14.945Z,22.45
2018-03-22T22:16:05.517Z,25.1
2018-03-22T22:21:56.220Z,23.7
2018-03-22T22:27:46.801Z,21.49
2018-03-22T22:33:37.438Z,20.26
2018-03-22T22:39:28.021Z,19.48
2018-03-22T22:45:18.665Z,21.26
2018-03-22T22:51:09.279Z,24.08
2018-03-22T22:56:59.914Z,28.7
2018-03-22T23:02:50.515Z,19.39
2018-03-22T23:08:41.202Z,23.77
2018-03-22T23:14:31.832Z,24.28
2018-03-22T23:20:22.421Z,27.51
2018-03-22T23:26:13.012Z,23.66
2018-03-22T23:32:03.660Z,23.84
2018-03-22T23:37:54.273Z,26.66
2018-03-22T23:43:44.915Z,26
2018-03-22T23:49:35.528Z,23.85
2018-03-22T23:55:26.160Z,26.7
